Time;durP1;ratioP1;P1;durP2;ratioP2;P2;SDS_P1;SDS_P2;PMS_P1;PMS_P2;Temp;Humidity;BMP_temperature;BMP_pressure;BME280_temperature;BME280_humidity;BME280_pressure;Samples;Min_cycle;Max_cycle;Signal;HPM_P1;HPM_P2
2022/08/03 00:00:27;;;;;;;7.00;2.65;;;18.80;99.90;;;;;;5051654;28;20053;-69
2022/08/03 00:02:55;;;;;;;9.27;2.63;;;18.80;99.90;;;;;;5054297;28;20504;-68
2022/08/03 00:05:22;;;;;;;5.30;2.55;;;19.30;99.90;;;;;;5055993;28;20447;-68
2022/08/03 00:07:49;;;;;;;32.05;3.35;;;18.80;99.90;;;;;;5038131;28;20079;-69
2022/08/03 00:10:16;;;;;;;7.28;3.20;;;18.80;99.90;;;;;;5038444;28;20083;-68
2022/08/03 00:12:43;;;;;;;6.28;2.78;;;18.80;99.90;;;;;;5056451;28;20044;-68
2022/08/03 00:15:11;;;;;;;7.55;2.40;;;18.70;99.90;;;;;;5055533;28;20559;-69
2022/08/03 00:17:37;;;;;;;10.00;2.80;;;18.70;99.90;;;;;;5056245;28;20107;-68
2022/08/03 00:20:06;;;;;;;8.40;3.25;;;18.70;99.90;;;;;;5055342;28;20508;-68
2022/08/03 00:22:35;;;;;;;7.03;2.35;;;18.70;99.90;;;;;;5054944;28;20090;-69
2022/08/03 00:25:01;;;;;;;4.82;2.15;;;18.60;99.90;;;;;;5037819;28;20057;-69
2022/08/03 00:27:28;;;;;;;6.28;2.30;;;18.60;99.90;;;;;;5056101;28;20102;-68
2022/08/03 00:29:55;;;;;;;6.90;2.50;;;18.60;99.90;;;;;;5055397;28;20057;-69
2022/08/03 00:32:22;;;;;;;13.40;3.00;;;18.50;99.90;;;;;;5037767;28;20103;-69
2022/08/03 00:34:49;;;;;;;8.30;2.83;;;18.50;99.90;;;;;;5055285;28;20106;-69
2022/08/03 00:37:17;;;;;;;10.05;2.65;;;18.50;99.90;;;;;;5037489;28;20053;-69
2022/08/03 00:39:46;;;;;;;13.20;3.20;;;18.50;99.90;;;;;;5038123;28;20057;-68
2022/08/03 00:42:13;;;;;;;7.03;3.00;;;18.50;99.90;;;;;;5055772;28;20081;-68
2022/08/03 00:44:41;;;;;;;7.28;2.70;;;18.40;99.90;;;;;;5055438;28;20094;-68
2022/08/03 00:47:09;;;;;;;7.50;2.85;;;18.40;99.90;;;;;;5055635;28;20049;-68
2022/08/03 00:49:36;;;;;;;16.30;3.20;;;18.30;99.90;;;;;;5054621;28;20164;-68
2022/08/03 00:52:04;;;;;;;7.85;2.83;;;18.40;99.90;;;;;;5055454;28;20481;-68
2022/08/03 00:54:33;;;;;;;9.65;3.40;;;18.30;99.90;;;;;;5055939;28;20084;-69
2022/08/03 00:57:01;;;;;;;7.28;2.97;;;18.30;99.90;;;;;;5054621;28;20091;-68
2022/08/03 00:59:29;;;;;;;8.77;2.90;;;18.20;99.90;;;;;;5037860;28;20053;-68
2022/08/03 01:01:56;;;;;;;9.43;2.70;;;18.20;99.90;;;;;;5037573;28;20464;-68
2022/08/03 01:04:23;;;;;;;9.48;3.20;;;18.20;99.90;;;;;;5054427;28;20094;-69
2022/08/03 01:06:53;;;;;;;7.95;3.15;;;18.20;99.90;;;;;;5055032;28;20048;-68
2022/08/03 01:09:30;;;;;;;10.75;3.63;;;18.10;99.90;;;;;;5037380;28;20118;-68
2022/08/03 01:12:04;;;;;;;10.18;3.08;;;18.10;99.90;;;;;;5036583;28;20103;-69
2022/08/03 01:14:38;;;;;;;7.43;3.25;;;18.10;99.90;;;;;;5036543;28;20103;-68
2022/08/03 01:17:11;;;;;;;8.30;2.63;;;18.10;99.90;;;;;;5055247;28;20048;-68
2022/08/03 01:19:49;;;;;;;5.03;2.47;;;18.10;99.90;;;;;;5054258;28;20130;-68
2022/08/03 01:22:37;;;;;;;7.25;2.42;;;18.00;99.90;;;;;;5055064;28;20041;-69
2022/08/03 01:25:13;;;;;;;8.73;2.80;;;18.00;99.90;;;;;;5034437;28;20053;-69
2022/08/03 01:27:53;;;;;;;12.55;2.90;;;18.00;99.90;;;;;;5018148;28;20343;-69
2022/08/03 01:30:27;;;;;;;12.65;3.45;;;18.00;99.90;;;;;;5055059;28;20059;-69
2022/08/03 01:33:00;;;;;;;5.82;2.88;;;18.00;99.90;;;;;;5036013;28;20539;-70
2022/08/03 01:35:33;;;;;;;6.18;2.63;;;18.00;99.90;;;;;;5017248;28;20057;-68
2022/08/03 01:38:04;;;;;;;7.80;2.65;;;18.10;99.90;;;;;;5034995;28;20132;-68
2022/08/03 01:40:34;;;;;;;8.43;2.30;;;18.10;99.90;;;;;;5034141;28;20092;-68
2022/08/03 01:43:03;;;;;;;8.73;2.47;;;18.00;99.90;;;;;;5017255;28;20493;-69
2022/08/03 01:45:32;;;;;;;6.97;2.70;;;18.10;99.90;;;;;;5017098;28;20061;-68
2022/08/03 01:48:00;;;;;;;6.57;2.55;;;18.10;99.90;;;;;;5037836;28;20501;-68
2022/08/03 01:50:30;;;;;;;6.63;2.53;;;18.00;99.90;;;;;;5053727;28;20049;-68
2022/08/03 01:52:57;;;;;;;11.35;2.47;;;18.00;99.90;;;;;;5034719;28;20053;-69
2022/08/03 01:55:27;;;;;;;9.65;2.53;;;18.00;99.90;;;;;;5054460;28;20057;-69
2022/08/03 01:57:55;;;;;;;8.05;2.45;;;18.00;99.90;;;;;;5054101;28;20420;-69
2022/08/03 02:00:23;;;;;;;6.95;2.70;;;18.10;99.90;;;;;;5036118;28;20148;-69
2022/08/03 02:02:54;;;;;;;8.38;2.42;;;18.10;99.90;;;;;;5035845;28;20053;-68
2022/08/03 02:05:21;;;;;;;;;;;18.00;99.90;;;;;;5054366;28;20099;-69
2022/08/03 02:07:49;;;;;;;6.95;2.67;;;18.00;99.90;;;;;;5053529;28;20343;-69
2022/08/03 02:10:20;;;;;;;7.47;2.40;;;18.00;99.90;;;;;;5053075;28;20052;-69
2022/08/03 02:12:48;;;;;;;9.18;2.45;;;18.00;99.90;;;;;;5053540;28;20053;-69
2022/08/03 02:15:16;;;;;;;7.20;2.33;;;18.00;99.90;;;;;;5035500;28;20075;-68
2022/08/03 02:17:45;;;;;;;7.40;2.53;;;18.00;99.90;;;;;;5053881;28;20049;-68
2022/08/03 02:20:15;;;;;;;7.85;2.35;;;18.00;99.90;;;;;;5053820;28;20095;-68
2022/08/03 02:22:43;;;;;;;7.47;2.50;;;18.00;99.90;;;;;;5035369;28;20084;-69
2022/08/03 02:25:12;;;;;;;7.18;2.67;;;18.00;99.90;;;;;;5053211;28;20056;-69
2022/08/03 02:27:42;;;;;;;10.70;1.95;;;18.00;99.90;;;;;;5036086;28;20060;-69
2022/08/03 02:30:10;;;;;;;;;;;18.00;99.90;;;;;;5054012;28;20059;-68
2022/08/03 02:32:40;;;;;;;8.82;2.25;;;18.00;99.90;;;;;;5054007;28;19925;-69
2022/08/03 02:35:11;;;;;;;6.33;2.03;;;17.90;99.90;;;;;;5035427;28;20796;-70
2022/08/03 02:37:43;;;;;;;8.65;2.60;;;17.90;99.90;;;;;;5053569;28;20107;-69
2022/08/03 02:40:12;;;;;;;13.63;2.97;;;17.90;99.90;;;;;;5053035;28;20049;-69
2022/08/03 02:42:41;;;;;;;6.40;2.33;;;17.90;99.90;;;;;;5052826;28;20049;-68
2022/08/03 02:45:12;;;;;;;6.00;1.88;;;17.90;99.90;;;;;;5035493;28;20091;-69
2022/08/03 02:47:41;;;;;;;9.98;2.58;;;17.90;99.90;;;;;;5036184;28;20159;-68
2022/08/03 02:50:10;;;;;;;7.70;2.30;;;17.90;99.90;;;;;;5052537;28;20124;-69
2022/08/03 02:52:41;;;;;;;6.03;2.20;;;17.90;99.90;;;;;;5035474;28;20041;-68
2022/08/03 02:55:11;;;;;;;8.88;2.20;;;18.00;99.90;;;;;;5053125;28;20303;-69
2022/08/03 02:57:39;;;;;;;9.70;2.47;;;17.90;99.90;;;;;;5034896;28;20057;-69
2022/08/03 03:00:08;;;;;;;6.00;2.40;;;17.90;99.90;;;;;;5035497;28;20102;-68
2022/08/03 03:02:36;;;;;;;7.00;2.33;;;17.90;99.90;;;;;;5035628;28;20049;-68
2022/08/03 03:05:03;;;;;;;9.80;2.35;;;17.90;99.90;;;;;;5052368;28;20100;-68
2022/08/03 03:07:31;;;;;;;7.43;1.98;;;17.90;99.90;;;;;;5053092;28;20068;-68
2022/08/03 03:10:00;;;;;;;5.85;2.40;;;17.90;99.90;;;;;;5034556;28;20076;-67
2022/08/03 03:12:28;;;;;;;12.48;2.13;;;17.90;99.90;;;;;;5052796;28;20401;-68
2022/08/03 03:14:55;;;;;;;12.77;3.72;;;17.90;99.90;;;;;;5034757;28;20574;-68
2022/08/03 03:17:23;;;;;;;6.03;1.98;;;17.90;99.90;;;;;;5052759;28;20441;-68
2022/08/03 03:19:51;;;;;;;7.32;2.22;;;17.90;99.90;;;;;;5035201;28;20428;-68
2022/08/03 03:22:19;;;;;;;7.32;2.45;;;17.80;99.90;;;;;;5052605;28;20087;-68
2022/08/03 03:24:47;;;;;;;8.00;3.05;;;17.90;99.90;;;;;;5034110;28;20049;-68
2022/08/03 03:27:16;;;;;;;8.68;2.22;;;17.90;99.90;;;;;;5035151;28;20052;-68
2022/08/03 03:29:43;;;;;;;8.05;2.65;;;17.90;99.90;;;;;;5035268;28;20057;-68
2022/08/03 03:32:10;;;;;;;11.45;2.92;;;17.90;99.90;;;;;;5052239;28;20126;-67
2022/08/03 03:34:37;;;;;;;13.00;3.13;;;17.90;99.90;;;;;;5034311;28;20049;-68
2022/08/03 03:37:04;;;;;;;9.57;2.78;;;17.90;99.90;;;;;;5034185;28;20060;-68
2022/08/03 03:39:31;;;;;;;7.90;3.15;;;17.80;99.90;;;;;;5051443;28;20049;-68
2022/08/03 03:41:59;;;;;;;6.82;2.53;;;17.90;99.90;;;;;;5035140;28;20087;-68
2022/08/03 03:44:28;;;;;;;8.00;2.50;;;17.80;99.90;;;;;;5052010;28;20053;-69
2022/08/03 03:46:55;;;;;;;6.85;3.08;;;17.80;99.90;;;;;;5051999;28;20053;-68
2022/08/03 03:49:22;;;;;;;11.45;3.05;;;17.80;99.90;;;;;;5052509;28;20049;-68
2022/08/03 03:51:52;;;;;;;16.42;2.60;;;17.80;99.90;;;;;;5045018;28;20053;-69
2022/08/03 03:54:20;;;;;;;10.55;2.60;;;17.80;99.90;;;;;;5029919;28;20040;-69
2022/08/03 03:56:47;;;;;;;7.60;2.60;;;17.80;99.90;;;;;;5031648;28;20045;-68
2022/08/03 03:59:14;;;;;;;10.95;2.60;;;17.80;99.90;;;;;;5012404;28;20057;-69
2022/08/03 04:01:42;;;;;;;10.07;2.92;;;17.80;99.90;;;;;;5030676;28;20099;-68
2022/08/03 04:12:28;;;;;;;13.85;2.80;;;17.80;99.90;;;;;;5014294;28;20505;-68
2022/08/03 04:14:56;;;;;;;;;;;17.90;99.90;;;;;;5014551;28;20472;-68
2022/08/03 04:17:27;;;;;;;6.40;2.67;;;18.00;99.90;;;;;;5013582;28;19979;-67
2022/08/03 04:19:54;;;;;;;;;;;17.90;99.90;;;;;;5031392;28;20057;-68
2022/08/03 04:22:25;;;;;;;6.32;2.38;;;17.90;99.90;;;;;;5029502;28;20443;-68
2022/08/03 04:24:53;;;;;;;;;;;17.90;99.90;;;;;;5018574;28;20077;-67
2022/08/03 04:27:23;;;;;;;7.60;2.72;;;17.90;99.90;;;;;;5012402;28;19921;-69
2022/08/03 04:29:53;;;;;;;14.02;2.60;;;17.90;99.90;;;;;;5013285;28;20510;-68
2022/08/03 04:32:24;;;;;;;5.82;2.33;;;17.90;99.90;;;;;;5030623;28;20559;-69
2022/08/03 04:34:52;;;;;;;8.55;2.80;;;18.00;99.90;;;;;;5012572;28;20057;-70
2022/08/03 04:37:28;;;;;;;9.20;2.80;;;18.00;99.90;;;;;;5030485;28;20049;-71
2022/08/03 04:39:59;;;;;;;7.65;2.75;;;18.00;99.90;;;;;;5034331;28;20057;-69
2022/08/03 04:42:26;;;;;;;8.43;3.10;;;18.10;99.90;;;;;;5011874;28;20105;-69
2022/08/03 04:44:55;;;;;;;9.10;2.50;;;18.00;99.90;;;;;;5030513;28;20111;-69
2022/08/03 04:47:22;;;;;;;5.60;2.70;;;18.10;99.90;;;;;;5013222;28;20053;-70
2022/08/03 04:49:49;;;;;;;7.97;2.88;;;18.10;99.90;;;;;;5031668;28;20107;-70
2022/08/03 04:52:18;;;;;;;6.53;3.38;;;18.10;99.90;;;;;;5035067;28;20049;-71
2022/08/03 04:54:47;;;;;;;9.15;2.85;;;18.10;99.90;;;;;;5032124;28;20046;-70
2022/08/03 04:57:14;;;;;;;6.80;2.88;;;18.10;99.90;;;;;;5015593;28;20452;-69
2022/08/03 04:59:40;;;;;;;6.10;2.63;;;18.20;99.90;;;;;;5040804;28;20088;-71
2022/08/03 05:02:07;;;;;;;9.10;2.75;;;18.20;99.90;;;;;;5034554;28;20054;-68
2022/08/03 05:04:34;;;;;;;8.10;3.10;;;18.30;99.90;;;;;;5033178;28;20050;-70
2022/08/03 05:07:01;;;;;;;8.55;2.65;;;18.40;99.90;;;;;;5027913;28;20091;-70
2022/08/03 05:09:29;;;;;;;8.32;3.10;;;18.40;99.90;;;;;;5042380;28;20156;-69
2022/08/03 05:11:56;;;;;;;10.23;3.40;;;18.50;99.90;;;;;;5032685;28;20053;-70
2022/08/03 05:14:23;;;;;;;10.02;3.30;;;18.50;99.90;;;;;;5032916;28;20107;-70
2022/08/03 05:16:50;;;;;;;9.07;2.65;;;18.60;99.90;;;;;;5031397;28;20480;-70
2022/08/03 05:19:17;;;;;;;7.65;3.25;;;18.70;99.90;;;;;;5035229;28;20092;-70
2022/08/03 05:21:43;;;;;;;6.70;2.80;;;18.80;99.90;;;;;;5033961;28;20045;-71
2022/08/03 05:24:10;;;;;;;8.90;2.90;;;18.90;99.90;;;;;;5031950;28;20045;-71
2022/08/03 05:26:39;;;;;;;6.47;2.90;;;19.00;99.90;;;;;;5033103;28;20456;-70
2022/08/03 05:29:05;;;;;;;7.88;3.15;;;19.10;99.90;;;;;;5033968;28;20540;-70
2022/08/03 05:31:32;;;;;;;7.53;3.00;;;19.30;99.90;;;;;;5032487;28;20049;-71
2022/08/03 05:33:59;;;;;;;11.23;2.97;;;19.40;99.90;;;;;;5033512;28;20477;-71
2022/08/03 05:36:26;;;;;;;8.75;3.40;;;19.60;99.90;;;;;;5032556;28;20107;-71
2022/08/03 05:38:53;;;;;;;9.00;2.83;;;19.70;99.90;;;;;;5036418;28;20045;-71
2022/08/03 05:41:20;;;;;;;8.60;3.15;;;19.90;99.90;;;;;;5032624;28;20482;-70
2022/08/03 05:43:48;;;;;;;7.95;3.13;;;20.10;99.90;;;;;;5014274;28;20115;-71
2022/08/03 05:46:15;;;;;;;11.38;2.72;;;20.20;99.90;;;;;;5031930;28;20045;-71
2022/08/03 05:48:42;;;;;;;7.30;2.95;;;20.30;99.90;;;;;;5033290;28;20110;-71
2022/08/03 05:51:10;;;;;;;9.75;3.30;;;20.40;99.90;;;;;;5014859;28;20053;-71
2022/08/03 05:53:38;;;;;;;7.05;2.75;;;20.50;99.90;;;;;;5031963;28;20049;-70
2022/08/03 05:56:05;;;;;;;7.97;2.97;;;20.60;99.90;;;;;;5019522;28;20053;-70
2022/08/03 05:58:32;;;;;;;11.23;3.00;;;20.70;99.90;;;;;;5015768;28;20448;-70
2022/08/03 06:01:00;;;;;;;7.53;2.80;;;20.80;99.90;;;;;;5013830;28;20041;-70
2022/08/03 06:03:27;;;;;;;14.10;3.10;;;21.00;99.90;;;;;;5015384;28;20049;-70
2022/08/03 06:05:55;;;;;;;8.05;2.45;;;21.30;99.90;;;;;;5032278;28;20057;-70
2022/08/03 06:08:22;;;;;;;6.90;2.40;;;21.40;99.90;;;;;;5038712;28;20401;-70
2022/08/03 06:10:49;;;;;;;10.75;3.08;;;21.50;99.90;;;;;;5014498;28;20049;-70
2022/08/03 06:13:16;;;;;;;7.55;2.95;;;21.70;99.90;;;;;;5014475;28;20054;-70
2022/08/03 06:15:43;;;;;;;9.70;2.65;;;21.80;99.90;;;;;;5014743;28;20084;-71
2022/08/03 06:18:11;;;;;;;7.50;2.80;;;21.90;99.90;;;;;;5014357;28;20057;-70
2022/08/03 06:20:38;;;;;;;8.43;2.67;;;22.00;99.90;;;;;;5013417;28;20053;-71
2022/08/03 06:23:05;;;;;;;16.95;3.80;;;22.00;99.90;;;;;;5014821;28;20045;-70
2022/08/03 06:25:31;;;;;;;13.18;2.90;;;22.10;99.90;;;;;;5014926;28;20510;-71
2022/08/03 06:27:59;;;;;;;14.43;3.15;;;22.20;99.90;;;;;;5014517;28;20041;-70
2022/08/03 06:30:26;;;;;;;8.65;2.83;;;22.30;99.90;;;;;;5018167;28;20124;-70
2022/08/03 06:32:53;;;;;;;8.35;3.00;;;22.50;99.90;;;;;;5032188;28;20041;-70
2022/08/03 06:35:22;;;;;;;15.35;3.97;;;22.70;99.90;;;;;;5016562;28;20083;-69
2022/08/03 06:37:49;;;;;;;13.13;3.75;;;22.80;99.90;;;;;;5018828;28;20072;-70
2022/08/03 06:40:19;;;;;;;11.20;3.22;;;23.00;99.90;;;;;;5014599;28;20087;-71
2022/08/03 06:42:46;;;;;;;10.88;2.80;;;23.00;99.90;;;;;;5013827;28;20059;-71
2022/08/03 06:45:13;;;;;;;14.50;3.00;;;23.40;99.90;;;;;;5014112;28;20087;-71
2022/08/03 06:47:40;;;;;;;9.38;3.58;;;23.80;99.90;;;;;;5031843;28;20489;-71
2022/08/03 06:50:09;;;;;;;9.35;2.83;;;24.10;99.90;;;;;;5031366;28;20133;-71
2022/08/03 06:52:37;;;;;;;10.52;3.08;;;24.40;99.90;;;;;;5015714;28;20052;-71
2022/08/03 06:55:05;;;;;;;8.13;2.63;;;24.90;99.90;;;;;;5034883;28;20444;-71
2022/08/03 06:57:32;;;;;;;9.80;2.85;;;25.30;99.90;;;;;;5015443;28;20081;-70
2022/08/03 07:00:00;;;;;;;10.90;3.03;;;25.40;99.90;;;;;;5031382;28;20563;-71
2022/08/03 07:02:27;;;;;;;9.15;2.72;;;25.80;99.90;;;;;;5030439;28;20084;-70
2022/08/03 07:04:54;;;;;;;8.23;3.03;;;26.20;99.90;;;;;;5016941;28;20482;-72
2022/08/03 07:07:21;;;;;;;11.73;2.80;;;26.60;99.90;;;;;;5014183;28;20115;-71
2022/08/03 07:09:49;;;;;;;8.57;3.83;;;27.00;99.90;;;;;;5038871;28;20152;-71
2022/08/03 07:12:16;;;;;;;10.52;3.38;;;27.20;99.90;;;;;;5033585;28;20401;-71
2022/08/03 07:14:43;;;;;;;10.77;2.53;;;27.50;99.90;;;;;;5035103;28;20059;-71
2022/08/03 07:17:10;;;;;;;13.80;2.97;;;27.70;99.90;;;;;;5030030;28;20044;-72
2022/08/03 07:19:37;;;;;;;9.38;3.05;;;27.90;99.90;;;;;;5052570;28;20053;-72
2022/08/03 07:22:04;;;;;;;14.60;3.28;;;27.90;99.90;;;;;;5034890;28;20179;-71
2022/08/03 07:24:30;;;;;;;5.68;2.40;;;28.30;99.90;;;;;;5050808;28;20547;-72
2022/08/03 07:26:59;;;;;;;8.15;2.72;;;28.40;99.90;;;;;;5034739;28;20496;-72
2022/08/03 07:29:26;;;;;;;9.75;2.65;;;28.70;99.90;;;;;;5035068;28;20064;-71
2022/08/03 07:31:52;;;;;;;8.80;2.90;;;28.70;99.90;;;;;;5051223;28;20049;-71
2022/08/03 07:34:20;;;;;;;8.13;2.72;;;28.90;99.90;;;;;;5034553;28;20049;-71
2022/08/03 07:36:46;;;;;;;8.60;2.47;;;29.00;99.90;;;;;;5034782;28;20128;-72
2022/08/03 07:39:13;;;;;;;8.05;2.78;;;29.00;99.90;;;;;;5048800;28;20053;-72
2022/08/03 07:41:40;;;;;;;12.65;3.13;;;29.10;99.90;;;;;;5017089;28;20057;-72
2022/08/03 07:44:08;;;;;;;8.00;2.78;;;29.60;99.90;;;;;;5041829;28;20049;-72
2022/08/03 07:46:35;;;;;;;8.68;2.67;;;29.60;99.90;;;;;;5050667;28;20298;-72
2022/08/03 07:49:02;;;;;;;9.73;2.67;;;29.70;99.90;;;;;;5051880;28;20129;-72
2022/08/03 07:51:29;;;;;;;10.18;2.50;;;29.90;99.90;;;;;;5049975;28;20546;-72
2022/08/03 07:53:56;;;;;;;11.50;2.95;;;29.60;99.50;;;;;;5020255;28;20085;-72
2022/08/03 07:56:23;;;;;;;7.47;2.55;;;29.70;99.50;;;;;;5015794;28;20100;-71
2022/08/03 07:58:50;;;;;;;8.60;2.85;;;29.80;99.40;;;;;;5050817;28;20118;-72
2022/08/03 08:01:18;;;;;;;8.65;2.78;;;29.50;99.00;;;;;;5032136;28;20056;-73
2022/08/03 08:03:45;;;;;;;9.15;2.80;;;29.70;99.00;;;;;;5051035;28;20543;-72
2022/08/03 08:06:12;;;;;;;11.90;2.92;;;29.70;99.00;;;;;;5031574;28;20151;-71
2022/08/03 08:08:40;;;;;;;6.35;3.00;;;29.80;98.80;;;;;;5051633;28;20098;-72
2022/08/03 08:11:07;;;;;;;10.32;3.20;;;29.40;98.50;;;;;;5051788;28;20045;-71
2022/08/03 08:13:36;;;;;;;10.07;3.30;;;29.50;98.70;;;;;;5033276;28;20099;-72
2022/08/03 08:16:03;;;;;;;6.97;2.80;;;29.20;98.90;;;;;;5034205;28;20045;-72
2022/08/03 08:18:31;;;;;;;10.20;3.13;;;29.50;98.80;;;;;;5052262;28;20104;-72
2022/08/03 08:21:00;;;;;;;7.65;2.83;;;29.80;98.00;;;;;;5033721;28;20085;-71
2022/08/03 08:23:27;;;;;;;13.10;2.67;;;30.00;98.20;;;;;;5053570;28;20576;-72
2022/08/03 08:25:54;;;;;;;8.88;2.90;;;30.40;97.90;;;;;;5055638;28;20053;-72
2022/08/03 08:28:22;;;;;;;14.32;3.42;;;30.50;97.40;;;;;;5055054;28;20045;-72
2022/08/03 08:30:49;;;;;;;12.90;3.38;;;30.50;97.20;;;;;;5038226;28;20060;-70
2022/08/03 08:33:16;;;;;;;9.30;2.63;;;30.40;97.30;;;;;;5038318;28;20056;-72
2022/08/03 08:35:45;;;;;;;10.70;3.08;;;30.70;97.30;;;;;;5037170;28;20094;-72
2022/08/03 08:38:12;;;;;;;9.68;2.80;;;31.00;96.50;;;;;;5037206;28;20520;-71
2022/08/03 08:40:39;;;;;;;15.02;2.85;;;31.20;96.50;;;;;;5055503;28;20124;-72
2022/08/03 08:43:07;;;;;;;10.30;3.40;;;30.70;96.90;;;;;;5055901;28;20053;-72
2022/08/03 08:45:34;;;;;;;10.52;2.67;;;30.70;96.60;;;;;;5037853;28;20159;-72
2022/08/03 08:48:03;;;;;;;14.05;3.42;;;30.80;96.40;;;;;;5036861;28;20560;-72
2022/08/03 08:50:30;;;;;;;8.45;2.80;;;31.10;96.00;;;;;;5055776;28;20077;-72
2022/08/03 08:53:01;;;;;;;7.63;2.70;;;31.20;95.50;;;;;;5055341;28;20562;-72
2022/08/03 08:55:29;;;;;;;10.48;2.55;;;31.40;96.00;;;;;;5054731;28;20045;-71
2022/08/03 08:58:01;;;;;;;8.45;2.67;;;31.30;95.70;;;;;;5037333;28;20056;-72
2022/08/03 09:00:29;;;;;;;9.85;3.03;;;31.30;95.50;;;;;;5037931;28;20115;-71
2022/08/03 09:02:56;;;;;;;11.75;3.05;;;31.30;95.60;;;;;;5054682;28;20552;-72
2022/08/03 09:05:23;;;;;;;15.13;3.03;;;31.80;95.40;;;;;;5037507;28;20481;-72
2022/08/03 09:07:51;;;;;;;8.43;3.00;;;32.10;94.90;;;;;;5037023;28;20048;-72
2022/08/03 09:10:20;;;;;;;8.80;2.67;;;31.90;94.80;;;;;;5054368;28;20051;-72
2022/08/03 09:12:49;;;;;;;7.22;2.63;;;31.90;95.10;;;;;;5037478;28;20056;-72
2022/08/03 09:15:17;;;;;;;6.50;2.72;;;32.40;94.70;;;;;;5037411;28;20139;-73
2022/08/03 09:17:44;;;;;;;6.28;2.55;;;32.60;94.00;;;;;;5036275;28;20102;-73
2022/08/03 09:20:12;;;;;;;19.08;3.30;;;33.10;93.70;;;;;;5037058;28;20534;-72
2022/08/03 09:22:52;;;;;;;8.15;3.40;;;33.40;93.40;;;;;;5054639;28;20045;-72
2022/08/03 09:25:27;;;;;;;9.05;3.00;;;33.70;92.20;;;;;;5052250;28;20045;-72
2022/08/03 09:27:54;;;;;;;8.25;2.95;;;33.50;91.90;;;;;;5054924;28;20048;-73
2022/08/03 09:30:21;;;;;;;9.38;3.10;;;33.30;92.50;;;;;;5054279;28;20118;-73
2022/08/03 09:32:48;;;;;;;6.38;2.95;;;33.40;92.40;;;;;;5054997;28;20052;-73
2022/08/03 09:35:15;;;;;;;6.68;2.53;;;33.70;92.40;;;;;;5036162;28;20094;-72
2022/08/03 09:37:42;;;;;;;6.15;2.42;;;33.60;91.90;;;;;;5053991;28;20049;-73
2022/08/03 09:40:10;;;;;;;6.65;2.97;;;33.20;91.80;;;;;;5036436;28;20099;-73
2022/08/03 09:42:56;;;;;;;9.23;3.05;;;33.20;92.10;;;;;;5054469;28;20122;-72
2022/08/03 09:45:28;;;;;;;9.32;3.03;;;33.00;91.70;;;;;;5036045;28;20072;-72
2022/08/03 09:47:56;;;;;;;8.73;3.17;;;33.30;91.80;;;;;;5036305;28;20060;-73
2022/08/03 09:50:23;;;;;;;8.27;2.80;;;33.30;91.90;;;;;;5054510;28;20049;-73
2022/08/03 09:52:51;;;;;;;7.40;3.05;;;33.60;91.80;;;;;;5053570;28;20096;-73
2022/08/03 09:55:20;;;;;;;11.07;3.05;;;34.10;91.40;;;;;;5036535;28;20132;-73
2022/08/03 09:57:48;;;;;;;7.78;2.67;;;34.10;91.20;;;;;;5054031;28;20128;-72
2022/08/03 10:00:17;;;;;;;10.77;3.35;;;34.00;91.00;;;;;;5035790;28;20045;-73
2022/08/03 10:02:44;;;;;;;8.15;3.20;;;34.00;90.90;;;;;;5053922;28;20421;-72
2022/08/03 10:05:13;;;;;;;11.20;3.05;;;33.90;91.00;;;;;;5053539;28;20436;-72
2022/08/03 10:07:45;;;;;;;11.13;2.87;;;34.00;90.80;;;;;;5054017;28;20142;-73
2022/08/03 10:10:13;;;;;;;8.20;3.33;;;34.20;91.00;;;;;;5035731;28;20049;-73
2022/08/03 10:12:41;;;;;;;8.45;2.38;;;34.20;90.50;;;;;;5052435;28;20056;-73
2022/08/03 10:15:10;;;;;;;5.50;3.08;;;34.20;90.30;;;;;;5036397;28;20509;-73
2022/08/03 10:17:38;;;;;;;10.50;2.92;;;33.90;90.40;;;;;;5053969;28;20098;-73
2022/08/03 10:20:07;;;;;;;13.25;3.40;;;34.10;90.30;;;;;;5052852;28;20509;-73
2022/08/03 10:22:35;;;;;;;6.97;2.67;;;34.20;90.10;;;;;;5054419;28;20048;-73
2022/08/03 10:25:06;;;;;;;10.33;3.43;;;33.90;90.10;;;;;;5035697;28;20303;-73
2022/08/03 10:27:36;;;;;;;8.38;3.00;;;33.40;90.30;;;;;;5035080;28;20057;-72
2022/08/03 10:30:06;;;;;;;9.57;2.78;;;33.30;90.70;;;;;;5036067;28;20057;-71
2022/08/03 10:32:40;;;;;;;9.45;3.13;;;33.40;90.70;;;;;;5035855;28;20099;-72
2022/08/03 10:35:11;;;;;;;13.20;3.33;;;33.40;90.30;;;;;;5035042;28;20080;-73
2022/08/03 10:37:44;;;;;;;6.40;2.90;;;33.60;90.60;;;;;;5053666;28;20073;-73
2022/08/03 10:40:18;;;;;;;11.20;3.15;;;33.90;90.00;;;;;;5052903;28;20052;-72
2022/08/03 10:42:47;;;;;;;9.75;2.83;;;34.20;90.10;;;;;;5035781;28;20059;-73
2022/08/03 10:45:19;;;;;;;9.45;2.78;;;34.30;89.80;;;;;;5035477;28;20132;-73
2022/08/03 10:47:48;;;;;;;9.90;2.75;;;34.50;89.00;;;;;;5052740;28;20048;-71
2022/08/03 10:50:15;;;;;;;8.90;3.08;;;34.80;87.90;;;;;;5053354;28;20563;-74
2022/08/03 10:53:05;;;;;;;8.43;2.83;;;34.70;88.40;;;;;;5035632;28;20052;-74
2022/08/03 10:58:52;;;;;;;11.45;3.85;;;35.20;87.00;;;;;;5035295;28;20056;-73
2022/08/03 11:01:39;;;;;;;12.57;3.80;;;35.10;85.90;;;;;;5030789;28;20107;-74
2022/08/03 11:04:18;;;;;;;9.38;3.10;;;34.90;87.20;;;;;;5052945;28;20531;-73
2022/08/03 11:06:47;;;;;;;9.57;3.60;;;35.10;86.70;;;;;;5035176;28;20106;-73
2022/08/03 11:09:18;;;;;;;11.63;3.75;;;34.90;86.50;;;;;;5034340;28;20182;-73
2022/08/03 11:11:47;;;;;;;9.38;3.40;;;35.20;86.10;;;;;;5052952;28;20049;-72
2022/08/03 11:14:15;;;;;;;;;;;35.30;85.70;;;;;;5035427;28;20049;-74
2022/08/03 11:16:45;;;;;;;12.25;3.60;;;35.10;84.00;;;;;;5034348;28;19971;-73
2022/08/03 11:19:14;;;;;;;10.73;3.38;;;35.40;85.20;;;;;;5052976;28;20067;-73
2022/08/03 11:21:56;;;;;;;14.60;4.03;;;35.30;85.20;;;;;;5034498;28;20049;-73
2022/08/03 11:24:58;;;;;;;14.00;4.40;;;35.50;84.10;;;;;;5052196;28;20052;-73
2022/08/03 11:27:27;;;;;;;12.60;4.90;;;35.50;84.40;;;;;;5052953;28;20048;-72
2022/08/03 11:29:56;;;;;;;13.32;4.57;;;35.50;84.00;;;;;;5034201;28;20094;-73
2022/08/03 11:32:52;;;;;;;14.20;3.70;;;35.60;84.40;;;;;;5034857;28;20095;-73
2022/08/03 11:35:20;;;;;;;11.88;3.47;;;35.40;83.40;;;;;;5051534;28;20501;-72
2022/08/03 11:38:08;;;;;;;13.38;4.60;;;35.40;83.70;;;;;;5049237;28;20069;-73
2022/08/03 11:40:43;;;;;;;15.20;3.95;;;35.30;83.00;;;;;;5030335;28;20085;-73
2022/08/03 11:43:46;;;;;;;12.90;3.92;;;35.50;83.50;;;;;;5047791;28;20063;-72
2022/08/03 11:46:17;;;;;;;11.30;4.65;;;35.50;83.70;;;;;;5030589;28;20147;-72
2022/08/03 11:48:46;;;;;;;16.48;4.70;;;35.30;83.50;;;;;;5013883;28;20069;-73
2022/08/03 11:51:21;;;;;;;15.32;5.32;;;35.10;83.80;;;;;;5030323;28;20053;-73
2022/08/03 11:53:56;;;;;;;15.60;4.82;;;35.30;83.90;;;;;;5013244;28;20497;-74
2022/08/03 11:56:23;;;;;;;12.32;4.28;;;35.10;83.50;;;;;;5014456;28;20089;-72
2022/08/03 11:58:52;;;;;;;14.98;4.72;;;35.10;83.70;;;;;;5015432;28;20075;-73
2022/08/03 12:01:20;;;;;;;;;;;35.10;83.20;;;;;;5018294;28;20059;-73
2022/08/03 12:03:47;;;;;;;12.98;4.63;;;34.90;84.00;;;;;;5035500;28;19979;-73
2022/08/03 12:06:16;;;;;;;11.93;4.50;;;34.80;83.90;;;;;;5034267;28;20397;-73
2022/08/03 12:08:45;;;;;;;10.02;3.60;;;34.60;83.90;;;;;;5018356;28;20615;-73
2022/08/03 12:11:15;;;;;;;13.82;3.80;;;34.60;84.30;;;;;;5045931;28;20171;-74
2022/08/03 12:13:43;;;;;;;12.27;4.25;;;34.70;84.20;;;;;;5036830;28;20076;-73
2022/08/03 12:16:11;;;;;;;11.52;4.05;;;34.60;83.90;;;;;;5036526;28;20049;-73
2022/08/03 12:18:37;;;;;;;14.90;3.75;;;34.70;84.00;;;;;;5030780;28;20402;-73
2022/08/03 12:21:07;;;;;;;21.23;5.22;;;34.30;84.80;;;;;;5022350;28;20050;-71
2022/08/03 12:23:35;;;;;;;13.25;4.00;;;34.30;84.70;;;;;;5023358;28;20114;-73
2022/08/03 12:26:03;;;;;;;12.07;3.78;;;34.30;84.00;;;;;;5055164;28;20049;-72
2022/08/03 12:28:32;;;;;;;11.35;3.95;;;34.70;84.10;;;;;;5055561;28;20516;-72
2022/08/03 12:31:02;;;;;;;17.45;4.22;;;34.70;83.50;;;;;;5055732;28;20060;-72
2022/08/03 12:33:29;;;;;;;21.08;4.18;;;34.70;83.40;;;;;;5037228;28;20404;-71
2022/08/03 12:36:05;;;;;;;14.25;3.72;;;34.80;83.80;;;;;;5038068;28;20045;-72
2022/08/03 12:38:33;;;;;;;10.05;3.75;;;34.80;82.30;;;;;;5055643;28;20084;-72
2022/08/03 12:41:02;;;;;;;11.60;3.53;;;34.80;82.50;;;;;;5037624;28;20048;-73
2022/08/03 12:43:29;;;;;;;13.02;4.38;;;34.80;82.70;;;;;;5056063;28;20056;-72
2022/08/03 12:46:15;;;;;;;13.98;4.20;;;34.80;82.60;;;;;;5038609;28;20049;-73
2022/08/03 12:49:05;;;;;;;18.80;4.03;;;34.90;82.60;;;;;;5037273;28;20099;-73
2022/08/03 12:51:33;;;;;;;13.07;4.25;;;34.50;82.70;;;;;;5037985;28;20089;-72
2022/08/03 12:54:01;;;;;;;14.48;4.60;;;34.50;83.90;;;;;;5054274;28;20493;-72
2022/08/03 12:56:28;;;;;;;14.15;4.20;;;34.30;83.90;;;;;;5055419;28;20053;-72
2022/08/03 12:58:55;;;;;;;16.58;4.22;;;34.20;83.90;;;;;;5037846;28;20056;-72
2022/08/03 13:01:23;;;;;;;14.40;4.60;;;34.40;84.10;;;;;;5037038;28;20122;-73
2022/08/03 13:03:53;;;;;;;16.48;4.18;;;34.50;83.90;;;;;;5055518;28;20053;-73
2022/08/03 13:06:22;;;;;;;11.45;4.13;;;34.50;82.40;;;;;;5054595;28;20060;-72